createdAt,value
2019-04-06T00:00:38.697Z,37.70
2019-04-06T00:03:09.180Z,38.10
2019-04-06T00:05:39.882Z,44.03
2019-04-06T00:08:10.347Z,39.70
2019-04-06T00:10:40.821Z,47.73
2019-04-06T00:13:11.424Z,39.87
2019-04-06T00:15:41.878Z,35.70
2019-04-06T00:18:12.303Z,37.00
2019-04-06T00:20:43.054Z,32.30
2019-04-06T00:23:13.524Z,40.13
2019-04-06T00:25:44.988Z,39.50
2019-04-06T00:28:15.608Z,37.10
2019-04-06T00:31:20.039Z,30.93
2019-04-06T00:33:50.548Z,33.53
2019-04-06T00:36:21.233Z,33.80
2019-04-06T00:38:51.589Z,38.73
2019-04-06T00:41:22.029Z,40.10
2019-04-06T00:43:52.462Z,47.57
2019-04-06T00:46:22.918Z,41.90
2019-04-06T00:48:53.385Z,37.37
2019-04-06T00:51:25.610Z,41.13
2019-04-06T00:53:56.015Z,43.87
2019-04-06T00:56:26.677Z,39.27
2019-04-06T00:58:57.112Z,40.73
2019-04-06T01:01:27.679Z,40.10
2019-04-06T01:03:58.242Z,41.20
2019-04-06T01:06:28.665Z,42.60
2019-04-06T01:08:59.122Z,35.13
2019-04-06T01:11:30.625Z,38.03
2019-04-06T01:14:01.044Z,37.90
2019-04-06T01:16:31.504Z,34.30
2019-04-06T01:19:02.366Z,36.03
2019-04-06T01:21:32.842Z,34.03
2019-04-06T01:24:03.718Z,36.77
2019-04-06T01:26:34.211Z,34.43
2019-04-06T01:29:04.775Z,35.23
2019-04-06T01:31:35.448Z,33.00
2019-04-06T01:34:06.208Z,42.40
2019-04-06T01:36:36.672Z,43.13
2019-04-06T01:39:08.153Z,34.37
2019-04-06T01:41:38.596Z,46.90
2019-04-06T01:44:09.556Z,37.93
2019-04-06T01:46:39.958Z,37.50
2019-04-06T01:49:10.692Z,34.60
2019-04-06T01:51:41.189Z,41.37
2019-04-06T01:54:11.671Z,39.57
2019-04-06T01:56:42.276Z,46.70
2019-04-06T01:59:12.766Z,41.47
2019-04-06T02:02:05.346Z,49.20
2019-04-06T02:04:35.797Z,46.97
2019-04-06T02:07:06.488Z,47.07
2019-04-06T02:09:36.940Z,39.27
2019-04-06T02:12:07.384Z,42.00
2019-04-06T02:14:38.197Z,38.23
2019-04-06T02:17:08.784Z,45.87
2019-04-06T02:19:39.440Z,45.80
2019-04-06T02:22:10.220Z,45.80
2019-04-06T02:24:40.797Z,37.10
2019-04-06T02:27:11.258Z,49.30
2019-04-06T02:29:41.793Z,48.50
2019-04-06T02:32:37.230Z,41.27
2019-04-06T02:35:17.838Z,37.67
2019-04-06T02:38:03.799Z,47.87
2019-04-06T02:40:45.620Z,44.00
2019-04-06T02:43:19.573Z,49.13
2019-04-06T02:45:49.993Z,50.90
2019-04-06T02:48:20.481Z,43.60
2019-04-06T02:50:50.976Z,52.43
2019-04-06T02:53:23.381Z,44.20
2019-04-06T02:55:53.904Z,51.47
2019-04-06T02:58:24.959Z,44.77
2019-04-06T03:00:55.665Z,49.20
2019-04-06T03:03:26.180Z,46.57
2019-04-06T03:05:56.590Z,45.73
2019-04-06T03:08:27.284Z,44.03
2019-04-06T03:10:57.748Z,57.60
2019-04-06T03:13:28.194Z,45.87
2019-04-06T03:15:58.990Z,41.33
2019-04-06T03:18:29.756Z,41.30
2019-04-06T03:21:00.260Z,43.30
2019-04-06T03:23:30.709Z,51.20
2019-04-06T03:26:01.235Z,50.77
2019-04-06T03:28:31.742Z,54.50
2019-04-06T03:31:02.653Z,54.57
2019-04-06T03:33:33.374Z,46.80
2019-04-06T03:36:03.878Z,45.33
2019-04-06T03:38:34.556Z,50.33
2019-04-06T03:41:05.226Z,41.93
2019-04-06T03:43:35.940Z,55.93
2019-04-06T03:46:06.362Z,50.50
2019-04-06T03:48:36.848Z,49.30
2019-04-06T03:51:08.294Z,51.17
2019-04-06T03:53:38.857Z,52.70
2019-04-06T03:56:09.299Z,48.23
2019-04-06T03:58:42.002Z,50.13
2019-04-06T04:01:12.390Z,56.63
2019-04-06T04:03:42.843Z,44.93
2019-04-06T04:06:13.471Z,46.43
2019-04-06T04:08:44.105Z,41.43
2019-04-06T04:11:14.858Z,38.37
2019-04-06T04:13:45.510Z,46.73
2019-04-06T04:16:16.281Z,41.80
2019-04-06T04:18:46.824Z,55.10
2019-04-06T04:21:17.742Z,42.50
2019-04-06T04:23:48.184Z,51.53
2019-04-06T04:26:18.680Z,48.47
2019-04-06T04:28:49.233Z,46.47
2019-04-06T04:31:19.819Z,43.57
2019-04-06T04:33:50.490Z,52.40
2019-04-06T04:36:21.244Z,41.03
2019-04-06T04:38:51.900Z,48.50
2019-04-06T04:41:22.416Z,52.10
2019-04-06T04:43:52.901Z,49.47
2019-04-06T04:46:23.662Z,54.50
2019-04-06T04:48:54.127Z,49.27
2019-04-06T04:51:24.944Z,49.73
2019-04-06T04:53:55.380Z,54.33
2019-04-06T04:56:25.981Z,53.80
2019-04-06T04:58:56.816Z,53.63
2019-04-06T05:01:27.668Z,52.47
2019-04-06T05:03:58.116Z,58.37
2019-04-06T05:06:29.063Z,56.27
2019-04-06T05:08:59.540Z,58.60
2019-04-06T05:11:29.998Z,64.90
2019-04-06T05:14:54.163Z,50.43
2019-04-06T05:17:24.632Z,43.30
2019-04-06T05:19:55.159Z,40.57
2019-04-06T05:22:25.934Z,46.70
2019-04-06T05:24:56.559Z,39.87
2019-04-06T05:27:27.343Z,48.43
2019-04-06T05:29:57.848Z,42.03
2019-04-06T05:32:28.708Z,36.80
2019-04-06T05:34:59.135Z,40.80
2019-04-06T05:37:29.674Z,43.97
2019-04-06T05:40:00.105Z,51.60
2019-04-06T05:42:31.215Z,50.50
2019-04-06T05:45:01.624Z,51.07
2019-04-06T05:47:32.417Z,60.97
2019-04-06T05:50:02.909Z,52.43
2019-04-06T05:52:33.752Z,45.07
2019-04-06T05:55:04.235Z,36.90
2019-04-06T05:57:37.080Z,40.40
2019-04-06T06:00:09.849Z,45.97
2019-04-06T06:02:41.364Z,40.20
2019-04-06T06:05:14.009Z,38.83
2019-04-06T06:07:44.439Z,42.07
2019-04-06T06:10:15.149Z,34.20
2019-04-06T06:12:45.607Z,43.57
2019-04-06T06:15:16.517Z,40.47
2019-04-06T06:17:47.037Z,43.20
2019-04-06T06:20:17.542Z,41.60
2019-04-06T06:22:48.137Z,39.13
2019-04-06T06:25:18.719Z,42.33
2019-04-06T06:27:49.180Z,44.00
2019-04-06T06:30:20.515Z,36.13
2019-04-06T06:32:51.097Z,46.03
2019-04-06T06:35:21.598Z,42.60
2019-04-06T06:37:52.239Z,43.00
2019-04-06T06:40:22.728Z,39.30
2019-04-06T06:42:53.206Z,37.03
2019-04-06T06:45:23.846Z,38.97
2019-04-06T06:47:54.378Z,37.97
2019-04-06T06:50:24.895Z,41.60
2019-04-06T06:52:55.661Z,46.77
2019-04-06T06:55:26.923Z,44.93
2019-04-06T06:57:57.924Z,42.60
2019-04-06T07:00:28.367Z,41.63
2019-04-06T07:02:58.982Z,39.80
2019-04-06T07:05:29.474Z,42.27
2019-04-06T07:07:59.972Z,46.50
2019-04-06T07:10:30.413Z,43.93
2019-04-06T07:13:00.910Z,39.83
2019-04-06T07:15:31.410Z,41.63
2019-04-06T07:18:02.006Z,44.60
2019-04-06T07:20:32.627Z,47.30
2019-04-06T07:23:03.165Z,48.53
2019-04-06T07:25:33.668Z,42.50
2019-04-06T07:28:04.143Z,38.93
2019-04-06T07:30:34.695Z,44.30
2019-04-06T07:33:05.696Z,41.20
2019-04-06T07:35:36.183Z,39.20
2019-04-06T07:38:06.776Z,43.40
2019-04-06T07:40:37.368Z,43.70
2019-04-06T07:43:08.137Z,43.67
2019-04-06T07:45:38.693Z,39.93
2019-04-06T07:48:09.507Z,37.07
2019-04-06T07:50:40.344Z,37.87
2019-04-06T07:53:10.929Z,41.13
2019-04-06T07:55:41.773Z,36.33
2019-04-06T07:58:12.208Z,35.70
2019-04-06T08:00:42.763Z,38.70
2019-04-06T08:03:13.737Z,36.73
2019-04-06T08:05:44.366Z,34.60
2019-04-06T08:08:15.000Z,31.10
2019-04-06T08:10:45.602Z,33.90
2019-04-06T08:13:16.275Z,33.10
2019-04-06T08:15:46.752Z,38.50
2019-04-06T08:18:17.384Z,31.07
2019-04-06T08:20:48.127Z,35.20
2019-04-06T08:23:18.732Z,39.23
2019-04-06T08:25:49.419Z,38.40
2019-04-06T08:28:19.980Z,37.90
2019-04-06T08:30:50.637Z,41.80
2019-04-06T08:33:21.274Z,37.73
2019-04-06T08:35:52.152Z,35.73
2019-04-06T08:38:22.665Z,37.53
2019-04-06T08:40:53.447Z,35.97
2019-04-06T08:43:23.985Z,35.57
2019-04-06T08:45:54.457Z,41.47
2019-04-06T08:48:25.025Z,37.37
2019-04-06T08:50:55.680Z,36.23
2019-04-06T08:53:26.408Z,38.53
2019-04-06T08:55:56.942Z,40.60
2019-04-06T08:58:27.778Z,30.40
2019-04-06T09:00:58.260Z,38.75
2019-04-06T09:03:29.203Z,35.93
2019-04-06T09:05:59.978Z,32.37
2019-04-06T09:08:30.946Z,29.00
2019-04-06T09:11:02.090Z,31.03
2019-04-06T09:13:32.771Z,37.63
2019-04-06T09:16:03.995Z,31.90
2019-04-06T09:18:34.776Z,29.67
2019-04-06T09:21:05.281Z,40.73
2019-04-06T09:23:35.998Z,24.53
2019-04-06T09:26:06.406Z,30.53
2019-04-06T09:28:36.993Z,28.13
2019-04-06T09:31:07.513Z,27.57
2019-04-06T09:33:38.221Z,26.53
2019-04-06T09:36:08.734Z,25.90
2019-04-06T09:38:39.249Z,29.00
2019-04-06T09:41:10.003Z,28.00
2019-04-06T09:43:40.459Z,27.77
2019-04-06T09:46:27.868Z,26.97
2019-04-06T09:49:17.459Z,31.73
2019-04-06T09:52:10.061Z,29.97
2019-04-06T09:55:02.925Z,30.03
2019-04-06T09:58:04.679Z,29.27
2019-04-06T10:00:57.537Z,30.27
2019-04-06T10:03:49.959Z,26.37
2019-04-06T10:06:36.552Z,28.23
2019-04-06T10:09:17.502Z,28.30
2019-04-06T10:12:10.146Z,24.67
2019-04-06T10:15:09.056Z,28.47
2019-04-06T10:17:47.392Z,28.57
2019-04-06T10:20:46.131Z,31.33
2019-04-06T10:23:41.876Z,28.10
2019-04-06T10:26:27.434Z,27.63
2019-04-06T10:29:26.404Z,25.97
2019-04-06T10:32:16.107Z,29.80
2019-04-06T10:35:06.030Z,36.03
2019-04-06T10:37:52.716Z,29.00
2019-04-06T10:40:40.786Z,32.47
2019-04-06T10:43:41.129Z,32.90
2019-04-06T10:46:30.565Z,33.53
2019-04-06T10:49:10.993Z,31.27
2019-04-06T10:51:55.688Z,35.93
2019-04-06T10:54:51.141Z,32.80
2019-04-06T10:57:40.191Z,32.47
2019-04-06T11:00:28.887Z,34.73
2019-04-06T11:03:21.412Z,35.63
2019-04-06T11:06:16.611Z,34.60
2019-04-06T11:09:12.360Z,33.10
2019-04-06T11:11:57.687Z,35.67
2019-04-06T11:14:52.896Z,36.43
2019-04-06T11:17:42.110Z,33.13
2019-04-06T11:20:41.620Z,34.13
2019-04-06T11:23:44.635Z,34.53
2019-04-06T11:26:34.228Z,37.30
2019-04-06T11:29:22.399Z,39.10
2019-04-06T11:31:59.982Z,83.10
2019-04-06T11:34:48.304Z,36.67
2019-04-06T11:37:36.291Z,42.27
2019-04-06T11:40:44.631Z,43.43
2019-04-06T11:43:30.751Z,51.60
2019-04-06T11:46:17.622Z,38.00
2019-04-06T11:49:03.666Z,41.70
2019-04-06T11:51:50.920Z,39.83
2019-04-06T11:54:46.544Z,36.77
2019-04-06T11:57:32.977Z,36.00
2019-04-06T12:00:26.824Z,36.53
2019-04-06T12:03:14.957Z,41.07
2019-04-06T12:06:03.289Z,41.33
2019-04-06T12:09:05.613Z,42.10
2019-04-06T12:12:01.076Z,42.20
2019-04-06T12:14:56.314Z,41.50
2019-04-06T12:17:50.235Z,35.20
2019-04-06T12:20:48.930Z,35.27
2019-04-06T12:23:41.612Z,37.10
2019-04-06T12:26:34.312Z,38.27
2019-04-06T12:29:23.035Z,42.57
2019-04-06T12:32:21.092Z,35.77
2019-04-06T12:35:06.673Z,37.70
2019-04-06T12:37:54.853Z,41.10
2019-04-06T12:40:59.223Z,34.10
2019-04-06T12:43:51.502Z,36.40
2019-04-06T12:46:39.859Z,40.67
2019-04-06T12:49:29.199Z,39.23
2019-04-06T12:52:21.641Z,38.60
2019-04-06T12:55:09.818Z,40.83
2019-04-06T12:57:59.173Z,42.20
2019-04-06T13:00:53.079Z,42.13
2019-04-06T13:03:41.442Z,42.97
2019-04-06T13:06:36.904Z,44.57
2019-04-06T13:09:33.931Z,40.30
2019-04-06T13:12:10.404Z,40.63
2019-04-06T13:15:06.505Z,43.70
2019-04-06T13:17:58.830Z,34.00
2019-04-06T13:20:46.266Z,37.83
2019-04-06T13:23:41.984Z,42.00
2019-04-06T13:26:32.786Z,36.20
2019-04-06T13:29:25.086Z,34.27
2019-04-06T13:32:07.898Z,31.67
2019-04-06T13:35:06.215Z,35.23
2019-04-06T13:37:55.757Z,32.83
2019-04-06T13:40:57.472Z,34.27
2019-04-06T13:43:35.843Z,34.23
2019-04-06T13:46:22.841Z,27.47
2019-04-06T13:49:13.454Z,31.20
2019-04-06T13:51:52.582Z,33.40
2019-04-06T13:54:45.088Z,27.53
2019-04-06T13:57:27.180Z,25.27
2019-04-06T14:00:15.603Z,27.00
2019-04-06T14:03:08.523Z,27.13
2019-04-06T14:06:09.336Z,23.30
2019-04-06T14:09:01.467Z,30.00
2019-04-06T14:12:03.383Z,30.23
2019-04-06T14:15:04.577Z,27.50
2019-04-06T14:18:06.000Z,32.33
2019-04-06T14:20:43.621Z,25.30
2019-04-06T14:23:31.830Z,28.43
2019-04-06T14:26:27.349Z,30.23
2019-04-06T14:29:06.266Z,24.47
2019-04-06T14:31:55.097Z,27.27
2019-04-06T14:34:34.039Z,23.27
2019-04-06T14:37:22.311Z,26.57
2019-04-06T14:40:10.592Z,25.93
2019-04-06T14:43:00.110Z,33.40
2019-04-06T14:45:55.932Z,29.70
2019-04-06T14:48:44.567Z,23.97
2019-04-06T14:51:37.046Z,23.10
2019-04-06T14:54:22.504Z,30.17
2019-04-06T14:57:12.324Z,30.67
2019-04-06T15:00:04.631Z,27.80
2019-04-06T15:03:09.084Z,26.80
2019-04-06T15:05:58.397Z,31.57
2019-04-06T15:08:46.691Z,34.67
2019-04-06T15:11:31.536Z,30.87
2019-04-06T15:14:33.241Z,31.77
2019-04-06T15:17:27.948Z,26.60
2019-04-06T15:20:23.685Z,29.37
2019-04-06T15:23:12.397Z,25.47
2019-04-06T15:26:00.478Z,27.77
2019-04-06T15:29:09.646Z,32.40
2019-04-06T15:31:59.516Z,34.37
2019-04-06T15:34:55.363Z,35.33
2019-04-06T15:37:43.663Z,29.60
2019-04-06T15:40:23.044Z,29.53
2019-04-06T15:43:19.289Z,27.13
2019-04-06T15:46:18.140Z,29.20
2019-04-06T15:49:02.598Z,32.40
2019-04-06T15:51:52.062Z,25.00
2019-04-06T15:54:44.718Z,24.73
2019-04-06T15:57:31.307Z,24.57
2019-04-06T16:00:08.245Z,23.50
2019-04-06T16:03:03.771Z,27.53
2019-04-06T16:05:47.777Z,25.50
2019-04-06T16:08:44.662Z,22.97
2019-04-06T16:11:33.981Z,30.23
2019-04-06T16:14:41.534Z,28.63
2019-04-06T16:17:16.803Z,29.67
2019-04-06T16:20:21.442Z,27.20
2019-04-06T16:23:11.129Z,23.03
2019-04-06T16:26:00.894Z,20.90
2019-04-06T16:28:40.307Z,33.63
2019-04-06T16:31:29.723Z,22.20
2019-04-06T16:34:19.054Z,28.80
2019-04-06T16:37:15.014Z,25.70
2019-04-06T16:40:22.668Z,24.67
2019-04-06T16:43:07.840Z,20.50
2019-04-06T16:46:15.347Z,21.80
2019-04-06T16:49:04.900Z,19.03
2019-04-06T16:51:54.276Z,23.73
2019-04-06T16:54:33.104Z,16.93
2019-04-06T16:57:34.954Z,12.20
2019-04-06T17:00:24.460Z,13.60
2019-04-06T17:03:22.138Z,16.20
2019-04-06T17:06:11.623Z,10.77
2019-04-06T17:08:52.839Z,16.83
2019-04-06T17:11:57.463Z,15.13
2019-04-06T17:14:52.914Z,10.83
2019-04-06T17:17:44.269Z,12.77
2019-04-06T17:20:33.443Z,10.53
2019-04-06T17:23:09.561Z,8.63
2019-04-06T17:25:49.773Z,15.00
2019-04-06T17:28:38.204Z,13.33
2019-04-06T17:31:21.202Z,10.57
2019-04-06T17:34:02.643Z,17.77
2019-04-06T17:36:58.028Z,10.17
2019-04-06T17:39:50.463Z,10.87
2019-04-06T17:42:45.928Z,12.80
2019-04-06T17:45:27.658Z,9.03
2019-04-06T17:48:23.277Z,13.10
2019-04-06T17:51:07.920Z,11.13
2019-04-06T17:54:03.335Z,14.87
2019-04-06T17:56:40.219Z,10.00
2019-04-06T17:59:25.773Z,9.10
2019-04-06T18:02:13.347Z,8.10
2019-04-06T18:05:21.697Z,10.77
2019-04-06T18:08:20.221Z,9.13
2019-04-06T18:11:12.988Z,9.10
2019-04-06T18:14:00.193Z,6.80
2019-04-06T18:16:35.721Z,9.13
2019-04-06T18:19:06.805Z,8.63
2019-04-06T18:21:37.358Z,10.70
2019-04-06T18:24:07.912Z,13.17
2019-04-06T18:26:38.395Z,13.20
2019-04-06T18:29:08.892Z,15.07
2019-04-06T18:32:16.457Z,13.23
2019-04-06T18:34:47.031Z,15.60
2019-04-06T18:37:36.827Z,9.47
2019-04-06T18:40:20.103Z,8.40
2019-04-06T18:42:50.801Z,10.77
2019-04-06T18:45:21.226Z,12.43
2019-04-06T18:47:51.957Z,9.50
2019-04-06T18:50:33.268Z,9.40
2019-04-06T18:52:55.549Z,19.20
2019-04-06T18:55:27.034Z,15.43
2019-04-06T18:58:08.679Z,14.37
2019-04-06T19:00:29.937Z,13.03
2019-04-06T19:03:10.940Z,9.40
2019-04-06T19:05:32.832Z,14.90
2019-04-06T19:08:03.400Z,19.63
2019-04-06T19:10:34.032Z,17.10
2019-04-06T19:13:04.594Z,14.90
2019-04-06T19:15:35.078Z,10.87
2019-04-06T19:18:05.649Z,15.87
2019-04-06T19:20:36.171Z,14.50
2019-04-06T19:23:07.107Z,14.13
2019-04-06T19:25:40.995Z,18.30
2019-04-06T19:28:11.972Z,12.33
2019-04-06T19:30:42.861Z,9.07
2019-04-06T19:33:23.367Z,18.57
2019-04-06T19:35:48.763Z,10.90
2019-04-06T19:38:19.424Z,12.87
2019-04-06T19:40:53.434Z,15.37
2019-04-06T19:43:24.156Z,23.53
2019-04-06T19:45:55.655Z,12.67
2019-04-06T19:48:26.248Z,15.07
2019-04-06T19:50:56.726Z,21.10
2019-04-06T19:53:27.203Z,17.37
2019-04-06T19:55:57.698Z,13.57
2019-04-06T19:58:28.376Z,18.03
2019-04-06T20:00:58.932Z,16.40
2019-04-06T20:03:36.001Z,14.73
2019-04-06T20:06:02.720Z,22.13
2019-04-06T20:08:33.292Z,20.63
2019-04-06T20:11:03.783Z,13.50
2019-04-06T20:13:34.424Z,14.90
2019-04-06T20:16:04.919Z,14.20
2019-04-06T20:18:35.789Z,13.70
2019-04-06T20:21:06.371Z,12.80
2019-04-06T20:23:37.366Z,13.43
2019-04-06T20:26:07.981Z,20.70
2019-04-06T20:28:39.013Z,15.27
2019-04-06T20:31:09.725Z,14.60
2019-04-06T20:33:48.155Z,13.13
2019-04-06T20:36:13.083Z,15.37
2019-04-06T20:38:43.607Z,24.80
2019-04-06T20:41:14.435Z,16.00
2019-04-06T20:43:45.022Z,16.57
2019-04-06T20:46:15.766Z,18.83
2019-04-06T20:48:46.589Z,20.50
2019-04-06T20:51:17.116Z,16.10
2019-04-06T20:53:47.667Z,18.70
2019-04-06T20:56:18.226Z,12.07
2019-04-06T20:58:49.131Z,19.40
2019-04-06T21:01:19.980Z,23.13
2019-04-06T21:03:59.659Z,16.03
2019-04-06T21:06:23.373Z,16.13
2019-04-06T21:08:53.994Z,12.90
2019-04-06T21:11:24.614Z,13.93
2019-04-06T21:13:55.200Z,25.67
2019-04-06T21:16:25.863Z,22.17
2019-04-06T21:18:57.926Z,24.20
2019-04-06T21:21:28.643Z,19.97
2019-04-06T21:23:59.412Z,17.33
2019-04-06T21:26:30.028Z,16.30
2019-04-06T21:29:00.469Z,20.50
2019-04-06T21:31:31.593Z,22.70
2019-04-06T21:34:10.403Z,15.60
2019-04-06T21:36:35.079Z,18.43
2019-04-06T21:39:07.442Z,19.43
2019-04-06T21:41:38.467Z,15.40
2019-04-06T21:44:08.951Z,17.27
2019-04-06T21:46:39.473Z,15.47
2019-04-06T21:49:10.131Z,17.70
2019-04-06T21:51:40.627Z,17.70
2019-04-06T21:54:11.115Z,19.47
2019-04-06T21:56:42.379Z,18.23
2019-04-06T21:59:15.295Z,16.00
2019-04-06T22:01:45.545Z,21.63
2019-04-06T22:04:23.606Z,21.47
2019-04-06T22:06:48.526Z,18.17
2019-04-06T22:09:20.307Z,16.33
2019-04-06T22:11:51.465Z,21.47
2019-04-06T22:14:22.767Z,20.77
2019-04-06T22:16:53.414Z,17.80
2019-04-06T22:19:25.236Z,16.70
2019-04-06T22:21:56.282Z,20.87
2019-04-06T22:24:26.781Z,18.60
2019-04-06T22:26:57.444Z,20.60
2019-04-06T22:29:28.675Z,16.73
2019-04-06T22:31:59.597Z,18.03
2019-04-06T22:34:39.410Z,16.77
2019-04-06T22:37:02.706Z,29.23
2019-04-06T22:39:33.322Z,21.20
2019-04-06T22:42:04.368Z,17.80
2019-04-06T22:44:35.322Z,22.43
2019-04-06T22:47:05.970Z,24.23
2019-04-06T22:49:36.582Z,20.57
2019-04-06T22:52:07.930Z,24.33
2019-04-06T22:54:38.772Z,18.67
2019-04-06T22:57:09.312Z,23.73
2019-04-06T22:59:40.401Z,18.77
2019-04-06T23:02:10.989Z,18.27
2019-04-06T23:04:51.007Z,20.67
2019-04-06T23:07:22.428Z,19.03
2019-04-06T23:09:53.133Z,23.83
2019-04-06T23:12:23.834Z,22.83
2019-04-06T23:14:54.432Z,24.87
2019-04-06T23:17:25.245Z,20.17
2019-04-06T23:19:55.714Z,19.43
2019-04-06T23:22:26.355Z,20.40
2019-04-06T23:24:56.853Z,19.60
2019-04-06T23:27:27.361Z,19.03
2019-04-06T23:29:58.769Z,18.03
2019-04-06T23:32:29.599Z,23.10
2019-04-06T23:35:02.252Z,25.20
2019-04-06T23:37:32.392Z,23.73
2019-04-06T23:40:02.884Z,22.77
2019-04-06T23:42:33.336Z,20.20
2019-04-06T23:45:04.746Z,27.03
2019-04-06T23:47:35.416Z,19.23
2019-04-06T23:50:06.743Z,24.47
2019-04-06T23:52:37.426Z,26.67
2019-04-06T23:55:08.429Z,19.33
2019-04-06T23:57:39.393Z,21.17
